KBQK/BQK METAR and TAF weather

Enter ICAO airport designator
Station Type Date Time Source
KBQK METAR 2019/10/21 06:15 UTC NOAA

KBQK 210615Z AUTO 00000KT 1/2SM FG BKN002 16/16 A2999 RMK AO2 T01560155


Station Type Date Time Source
KBQK Decoded METAR 2019/10/21 06:15 UTC NOAA

Brunswick / Glynco, GA, United States (KBQK) 31-15N 081-28W
Oct 21, 2019 - 02:15 AM EDT / 2019.10.21 0615 UTC
Wind: Calm:0
Visibility: 1/2 mile(s):0
Sky conditions: mostly cloudy
Weather: fog
Temperature: 60.1 F (15.6 C)
Dew Point: 59.9 F (15.5 C)
Relative Humidity: 99%
Pressure (altimeter): 29.99 in. Hg (1015 hPa)
ob: KBQK 210615Z AUTO 00000KT 1/2SM FG BKN002 16/16 A2999 RMK AO2 T01560155
cycle: 6

Station Type Date Time Source
KBQK TAF UTC NOAA

Error!

Example: see airport list